Liverpool, United Kingdom
Current Conditions -  °F | °C
As of 5:20 PM on Friday 24 Oct 2014 (Local Time) from EGGP Reporting Station
Few Clouds Few Clouds  
Wind Chill: 54°   Ceiling: Unl
Heat Index: 54°   Visibility: 6mi
Dew Point: 43°   Wind: 6mph
Humidity: 67%   Direction: 250°WSW
Pressure: 29.85"   Gusts: NA
Location:  53.41°N, 2.98°W
Report Text: EGGP 241620Z 25005KT 9999 FEW028 12/06 Q1011
Loading
Personal Weather Stations






























Interactive Weather Map
Tropical Storm Tracking
New forecast layout! Learn more

10-Day Weather Forecast

Advertisements
Track Severe Weather on mobile